sensor_id;sensor_type;location;lat;lon;timestamp;P1;durP1;ratioP1;P2;durP2;ratioP2
27201;SDS011;14717;46.924;15.474;2022-08-19T00:01:34;5.93;;;2.05;;
27201;SDS011;14717;46.924;15.474;2022-08-19T00:04:03;6.57;;;2.70;;
27201;SDS011;14717;46.924;15.474;2022-08-19T00:06:31;5.00;;;1.90;;
27201;SDS011;14717;46.924;15.474;2022-08-19T00:08:56;8.30;;;2.00;;
27201;SDS011;14717;46.924;15.474;2022-08-19T00:11:23;8.75;;;1.92;;
27201;SDS011;14717;46.924;15.474;2022-08-19T00:13:49;4.30;;;2.10;;
27201;SDS011;14717;46.924;15.474;2022-08-19T00:16:15;5.15;;;2.10;;
27201;SDS011;14717;46.924;15.474;2022-08-19T00:18:43;4.35;;;1.80;;
27201;SDS011;14717;46.924;15.474;2022-08-19T00:21:08;8.55;;;2.30;;
27201;SDS011;14717;46.924;15.474;2022-08-19T00:23:34;5.00;;;1.67;;
27201;SDS011;14717;46.924;15.474;2022-08-19T00:26:01;9.43;;;2.35;;
27201;SDS011;14717;46.924;15.474;2022-08-19T00:28:30;6.55;;;2.10;;
27201;SDS011;14717;46.924;15.474;2022-08-19T00:30:58;8.77;;;2.38;;
27201;SDS011;14717;46.924;15.474;2022-08-19T00:33:24;7.30;;;2.00;;
27201;SDS011;14717;46.924;15.474;2022-08-19T00:35:50;7.75;;;2.00;;
27201;SDS011;14717;46.924;15.474;2022-08-19T00:38:16;5.68;;;1.95;;
27201;SDS011;14717;46.924;15.474;2022-08-19T00:40:42;5.22;;;1.88;;
27201;SDS011;14717;46.924;15.474;2022-08-19T00:43:11;4.05;;;1.67;;
27201;SDS011;14717;46.924;15.474;2022-08-19T00:45:38;3.88;;;1.83;;
27201;SDS011;14717;46.924;15.474;2022-08-19T00:48:07;3.97;;;1.80;;
27201;SDS011;14717;46.924;15.474;2022-08-19T00:50:33;7.13;;;2.13;;
27201;SDS011;14717;46.924;15.474;2022-08-19T00:52:59;8.80;;;2.35;;
27201;SDS011;14717;46.924;15.474;2022-08-19T00:55:29;4.03;;;2.03;;
27201;SDS011;14717;46.924;15.474;2022-08-19T00:58:04;7.65;;;2.08;;
27201;SDS011;14717;46.924;15.474;2022-08-19T01:00:33;7.15;;;2.10;;
27201;SDS011;14717;46.924;15.474;2022-08-19T01:03:02;7.20;;;1.90;;
27201;SDS011;14717;46.924;15.474;2022-08-19T01:05:29;8.57;;;2.28;;
27201;SDS011;14717;46.924;15.474;2022-08-19T01:07:56;5.78;;;2.22;;
27201;SDS011;14717;46.924;15.474;2022-08-19T01:10:25;7.55;;;2.50;;
27201;SDS011;14717;46.924;15.474;2022-08-19T01:12:52;3.40;;;2.00;;
27201;SDS011;14717;46.924;15.474;2022-08-19T01:15:21;6.03;;;2.30;;
27201;SDS011;14717;46.924;15.474;2022-08-19T01:17:50;7.13;;;2.50;;
27201;SDS011;14717;46.924;15.474;2022-08-19T01:20:19;6.80;;;2.30;;
27201;SDS011;14717;46.924;15.474;2022-08-19T01:22:47;4.80;;;1.90;;
27201;SDS011;14717;46.924;15.474;2022-08-19T01:25:20;6.43;;;2.17;;
27201;SDS011;14717;46.924;15.474;2022-08-19T01:27:50;6.07;;;2.20;;
27201;SDS011;14717;46.924;15.474;2022-08-19T01:30:18;8.25;;;2.55;;
27201;SDS011;14717;46.924;15.474;2022-08-19T01:32:51;4.65;;;2.13;;
27201;SDS011;14717;46.924;15.474;2022-08-19T01:35:17;5.45;;;1.67;;
27201;SDS011;14717;46.924;15.474;2022-08-19T01:37:44;6.85;;;2.08;;
27201;SDS011;14717;46.924;15.474;2022-08-19T01:40:15;7.43;;;2.30;;
27201;SDS011;14717;46.924;15.474;2022-08-19T01:42:42;3.97;;;1.85;;
27201;SDS011;14717;46.924;15.474;2022-08-19T01:45:07;7.35;;;2.30;;
27201;SDS011;14717;46.924;15.474;2022-08-19T01:47:34;5.68;;;1.83;;
27201;SDS011;14717;46.924;15.474;2022-08-19T01:50:02;6.30;;;2.42;;
27201;SDS011;14717;46.924;15.474;2022-08-19T01:52:30;7.05;;;2.55;;
27201;SDS011;14717;46.924;15.474;2022-08-19T01:54:55;9.32;;;2.17;;
27201;SDS011;14717;46.924;15.474;2022-08-19T01:57:21;4.47;;;1.85;;
27201;SDS011;14717;46.924;15.474;2022-08-19T01:59:46;5.68;;;1.85;;
27201;SDS011;14717;46.924;15.474;2022-08-19T02:02:11;7.47;;;2.53;;
27201;SDS011;14717;46.924;15.474;2022-08-19T02:04:37;7.40;;;2.50;;
27201;SDS011;14717;46.924;15.474;2022-08-19T02:07:03;5.30;;;1.90;;
27201;SDS011;14717;46.924;15.474;2022-08-19T02:09:30;5.50;;;2.05;;
27201;SDS011;14717;46.924;15.474;2022-08-19T02:11:56;5.93;;;2.20;;
27201;SDS011;14717;46.924;15.474;2022-08-19T02:14:22;3.22;;;2.10;;
27201;SDS011;14717;46.924;15.474;2022-08-19T02:16:47;8.50;;;2.40;;
27201;SDS011;14717;46.924;15.474;2022-08-19T02:19:13;5.65;;;2.42;;
27201;SDS011;14717;46.924;15.474;2022-08-19T02:21:38;6.72;;;2.30;;
27201;SDS011;14717;46.924;15.474;2022-08-19T02:24:04;6.32;;;2.40;;
27201;SDS011;14717;46.924;15.474;2022-08-19T02:26:29;9.13;;;2.47;;
27201;SDS011;14717;46.924;15.474;2022-08-19T02:28:57;6.55;;;2.30;;
27201;SDS011;14717;46.924;15.474;2022-08-19T02:31:24;7.75;;;2.33;;
27201;SDS011;14717;46.924;15.474;2022-08-19T02:33:50;6.20;;;2.00;;
27201;SDS011;14717;46.924;15.474;2022-08-19T02:36:17;8.05;;;2.13;;
27201;SDS011;14717;46.924;15.474;2022-08-19T02:38:43;7.20;;;2.08;;
27201;SDS011;14717;46.924;15.474;2022-08-19T02:41:14;8.50;;;2.55;;
27201;SDS011;14717;46.924;15.474;2022-08-19T02:43:45;6.85;;;2.60;;
27201;SDS011;14717;46.924;15.474;2022-08-19T02:46:21;8.88;;;2.15;;
27201;SDS011;14717;46.924;15.474;2022-08-19T02:51:23;5.57;;;2.15;;
27201;SDS011;14717;46.924;15.474;2022-08-19T02:53:50;7.53;;;2.08;;
27201;SDS011;14717;46.924;15.474;2022-08-19T02:56:16;6.28;;;2.15;;
27201;SDS011;14717;46.924;15.474;2022-08-19T02:58:42;5.00;;;2.20;;
27201;SDS011;14717;46.924;15.474;2022-08-19T03:01:08;7.93;;;2.88;;
27201;SDS011;14717;46.924;15.474;2022-08-19T03:03:35;3.25;;;1.83;;
27201;SDS011;14717;46.924;15.474;2022-08-19T03:06:19;6.15;;;2.17;;
27201;SDS011;14717;46.924;15.474;2022-08-19T03:08:46;6.78;;;2.08;;
27201;SDS011;14717;46.924;15.474;2022-08-19T03:11:15;5.25;;;2.15;;
27201;SDS011;14717;46.924;15.474;2022-08-19T03:13:46;6.53;;;2.10;;
27201;SDS011;14717;46.924;15.474;2022-08-19T03:16:14;8.07;;;2.60;;
27201;SDS011;14717;46.924;15.474;2022-08-19T03:18:40;13.57;;;2.80;;
27201;SDS011;14717;46.924;15.474;2022-08-19T03:21:06;8.80;;;2.45;;
27201;SDS011;14717;46.924;15.474;2022-08-19T03:23:31;8.02;;;2.72;;
27201;SDS011;14717;46.924;15.474;2022-08-19T03:25:57;6.15;;;2.42;;
27201;SDS011;14717;46.924;15.474;2022-08-19T03:28:23;7.22;;;2.30;;
27201;SDS011;14717;46.924;15.474;2022-08-19T03:30:59;6.10;;;2.40;;
27201;SDS011;14717;46.924;15.474;2022-08-19T03:33:31;7.85;;;2.30;;
27201;SDS011;14717;46.924;15.474;2022-08-19T03:38:26;6.85;;;2.25;;
27201;SDS011;14717;46.924;15.474;2022-08-19T03:40:51;7.60;;;2.53;;
27201;SDS011;14717;46.924;15.474;2022-08-19T03:43:16;6.57;;;2.40;;
27201;SDS011;14717;46.924;15.474;2022-08-19T03:45:42;6.68;;;2.22;;
27201;SDS011;14717;46.924;15.474;2022-08-19T03:48:08;9.60;;;2.90;;
27201;SDS011;14717;46.924;15.474;2022-08-19T03:50:38;9.15;;;2.53;;
27201;SDS011;14717;46.924;15.474;2022-08-19T03:53:04;7.07;;;2.28;;
27201;SDS011;14717;46.924;15.474;2022-08-19T03:55:31;8.45;;;2.60;;
27201;SDS011;14717;46.924;15.474;2022-08-19T03:57:56;10.93;;;2.90;;
27201;SDS011;14717;46.924;15.474;2022-08-19T04:00:22;6.85;;;2.53;;
27201;SDS011;14717;46.924;15.474;2022-08-19T04:02:47;8.02;;;2.35;;
27201;SDS011;14717;46.924;15.474;2022-08-19T04:05:12;9.10;;;2.25;;
27201;SDS011;14717;46.924;15.474;2022-08-19T04:07:39;7.28;;;2.08;;
27201;SDS011;14717;46.924;15.474;2022-08-19T04:10:04;4.93;;;2.42;;
27201;SDS011;14717;46.924;15.474;2022-08-19T04:12:30;7.10;;;2.67;;
27201;SDS011;14717;46.924;15.474;2022-08-19T04:14:55;5.57;;;2.17;;
27201;SDS011;14717;46.924;15.474;2022-08-19T04:17:21;9.32;;;2.63;;
27201;SDS011;14717;46.924;15.474;2022-08-19T04:19:47;7.20;;;2.58;;
27201;SDS011;14717;46.924;15.474;2022-08-19T04:22:12;8.75;;;2.50;;
27201;SDS011;14717;46.924;15.474;2022-08-19T04:24:38;9.23;;;2.28;;
27201;SDS011;14717;46.924;15.474;2022-08-19T04:27:03;7.53;;;2.67;;
27201;SDS011;14717;46.924;15.474;2022-08-19T04:29:30;10.55;;;2.70;;
27201;SDS011;14717;46.924;15.474;2022-08-19T04:31:56;8.07;;;2.55;;
27201;SDS011;14717;46.924;15.474;2022-08-19T04:34:24;6.20;;;2.55;;
27201;SDS011;14717;46.924;15.474;2022-08-19T04:36:54;6.72;;;2.40;;
27201;SDS011;14717;46.924;15.474;2022-08-19T04:39:22;7.57;;;2.45;;
27201;SDS011;14717;46.924;15.474;2022-08-19T04:42:14;7.72;;;2.88;;
27201;SDS011;14717;46.924;15.474;2022-08-19T04:44:59;13.63;;;2.75;;
27201;SDS011;14717;46.924;15.474;2022-08-19T04:47:25;6.68;;;2.72;;
27201;SDS011;14717;46.924;15.474;2022-08-19T04:49:51;6.75;;;2.53;;
27201;SDS011;14717;46.924;15.474;2022-08-19T04:52:16;11.38;;;2.80;;
27201;SDS011;14717;46.924;15.474;2022-08-19T04:54:42;10.63;;;2.75;;
27201;SDS011;14717;46.924;15.474;2022-08-19T04:57:07;6.65;;;2.78;;
27201;SDS011;14717;46.924;15.474;2022-08-19T04:59:34;7.00;;;2.40;;
27201;SDS011;14717;46.924;15.474;2022-08-19T05:02:02;7.65;;;2.58;;
27201;SDS011;14717;46.924;15.474;2022-08-19T05:04:28;9.20;;;2.90;;
27201;SDS011;14717;46.924;15.474;2022-08-19T05:06:55;8.60;;;2.78;;
27201;SDS011;14717;46.924;15.474;2022-08-19T05:09:21;10.77;;;3.03;;
27201;SDS011;14717;46.924;15.474;2022-08-19T05:11:46;7.53;;;2.40;;
27201;SDS011;14717;46.924;15.474;2022-08-19T05:14:12;7.05;;;2.55;;
27201;SDS011;14717;46.924;15.474;2022-08-19T05:16:37;10.27;;;3.05;;
27201;SDS011;14717;46.924;15.474;2022-08-19T05:19:03;6.85;;;2.75;;
27201;SDS011;14717;46.924;15.474;2022-08-19T05:21:47;11.30;;;2.88;;
27201;SDS011;14717;46.924;15.474;2022-08-19T05:24:31;9.18;;;3.05;;
27201;SDS011;14717;46.924;15.474;2022-08-19T05:26:59;4.40;;;2.45;;
27201;SDS011;14717;46.924;15.474;2022-08-19T05:29:27;9.50;;;2.72;;
27201;SDS011;14717;46.924;15.474;2022-08-19T05:31:53;5.82;;;2.80;;
27201;SDS011;14717;46.924;15.474;2022-08-19T05:34:20;9.32;;;2.90;;
27201;SDS011;14717;46.924;15.474;2022-08-19T05:36:47;7.38;;;2.60;;
27201;SDS011;14717;46.924;15.474;2022-08-19T05:39:15;6.82;;;2.90;;
27201;SDS011;14717;46.924;15.474;2022-08-19T05:41:43;10.77;;;2.80;;
27201;SDS011;14717;46.924;15.474;2022-08-19T05:44:10;6.97;;;2.80;;
27201;SDS011;14717;46.924;15.474;2022-08-19T05:46:39;10.02;;;3.17;;
27201;SDS011;14717;46.924;15.474;2022-08-19T05:49:05;9.10;;;4.07;;
27201;SDS011;14717;46.924;15.474;2022-08-19T05:51:32;9.93;;;3.28;;
27201;SDS011;14717;46.924;15.474;2022-08-19T05:53:59;9.02;;;3.42;;
27201;SDS011;14717;46.924;15.474;2022-08-19T05:56:25;7.28;;;2.90;;
27201;SDS011;14717;46.924;15.474;2022-08-19T05:58:51;9.48;;;3.25;;
27201;SDS011;14717;46.924;15.474;2022-08-19T06:01:17;8.60;;;3.00;;
27201;SDS011;14717;46.924;15.474;2022-08-19T06:03:43;7.18;;;2.75;;
27201;SDS011;14717;46.924;15.474;2022-08-19T06:06:11;11.13;;;2.90;;
27201;SDS011;14717;46.924;15.474;2022-08-19T06:08:39;12.52;;;3.55;;
27201;SDS011;14717;46.924;15.474;2022-08-19T06:14:03;9.80;;;3.28;;
27201;SDS011;14717;46.924;15.474;2022-08-19T06:16:39;8.07;;;2.90;;
27201;SDS011;14717;46.924;15.474;2022-08-19T06:19:08;12.68;;;2.97;;
27201;SDS011;14717;46.924;15.474;2022-08-19T06:21:37;13.30;;;3.08;;
27201;SDS011;14717;46.924;15.474;2022-08-19T06:24:05;11.52;;;3.28;;
27201;SDS011;14717;46.924;15.474;2022-08-19T06:26:33;8.50;;;3.10;;
27201;SDS011;14717;46.924;15.474;2022-08-19T06:29:00;7.50;;;3.25;;
27201;SDS011;14717;46.924;15.474;2022-08-19T06:31:28;9.52;;;2.97;;
27201;SDS011;14717;46.924;15.474;2022-08-19T06:33:54;9.07;;;3.10;;
27201;SDS011;14717;46.924;15.474;2022-08-19T06:36:24;9.48;;;2.88;;
27201;SDS011;14717;46.924;15.474;2022-08-19T06:38:56;9.43;;;2.92;;
27201;SDS011;14717;46.924;15.474;2022-08-19T06:41:22;9.98;;;3.20;;
27201;SDS011;14717;46.924;15.474;2022-08-19T06:43:48;7.78;;;2.42;;
27201;SDS011;14717;46.924;15.474;2022-08-19T06:46:14;6.50;;;2.55;;
27201;SDS011;14717;46.924;15.474;2022-08-19T06:48:42;10.05;;;2.55;;
27201;SDS011;14717;46.924;15.474;2022-08-19T06:51:08;7.47;;;2.80;;
27201;SDS011;14717;46.924;15.474;2022-08-19T06:53:33;6.40;;;2.60;;
27201;SDS011;14717;46.924;15.474;2022-08-19T06:55:59;7.63;;;2.53;;
27201;SDS011;14717;46.924;15.474;2022-08-19T06:58:28;5.20;;;2.45;;
27201;SDS011;14717;46.924;15.474;2022-08-19T07:00:57;8.43;;;2.58;;
27201;SDS011;14717;46.924;15.474;2022-08-19T07:03:27;6.47;;;2.13;;
27201;SDS011;14717;46.924;15.474;2022-08-19T07:05:56;5.90;;;2.30;;
27201;SDS011;14717;46.924;15.474;2022-08-19T07:08:22;7.65;;;2.40;;
27201;SDS011;14717;46.924;15.474;2022-08-19T07:10:49;7.43;;;2.33;;
27201;SDS011;14717;46.924;15.474;2022-08-19T07:13:14;4.68;;;1.85;;
27201;SDS011;14717;46.924;15.474;2022-08-19T07:15:40;7.63;;;2.00;;
27201;SDS011;14717;46.924;15.474;2022-08-19T07:18:06;5.13;;;2.20;;
27201;SDS011;14717;46.924;15.474;2022-08-19T07:20:31;4.63;;;2.08;;
27201;SDS011;14717;46.924;15.474;2022-08-19T07:22:57;6.07;;;2.60;;
27201;SDS011;14717;46.924;15.474;2022-08-19T07:25:23;8.60;;;1.95;;
27201;SDS011;14717;46.924;15.474;2022-08-19T07:27:49;5.07;;;1.83;;
27201;SDS011;14717;46.924;15.474;2022-08-19T07:30:15;7.22;;;2.00;;
27201;SDS011;14717;46.924;15.474;2022-08-19T07:32:41;5.78;;;2.15;;
27201;SDS011;14717;46.924;15.474;2022-08-19T07:35:08;7.10;;;2.35;;
27201;SDS011;14717;46.924;15.474;2022-08-19T07:37:34;5.90;;;1.95;;
27201;SDS011;14717;46.924;15.474;2022-08-19T07:40:03;7.60;;;2.10;;
27201;SDS011;14717;46.924;15.474;2022-08-19T07:42:30;6.05;;;2.40;;
27201;SDS011;14717;46.924;15.474;2022-08-19T07:44:56;5.30;;;2.15;;
27201;SDS011;14717;46.924;15.474;2022-08-19T07:47:23;8.15;;;2.35;;
27201;SDS011;14717;46.924;15.474;2022-08-19T07:49:48;7.40;;;2.80;;
27201;SDS011;14717;46.924;15.474;2022-08-19T07:52:14;8.77;;;2.80;;
27201;SDS011;14717;46.924;15.474;2022-08-19T07:54:39;8.45;;;2.40;;
27201;SDS011;14717;46.924;15.474;2022-08-19T07:57:06;7.63;;;2.55;;
27201;SDS011;14717;46.924;15.474;2022-08-19T07:59:32;9.70;;;2.67;;
27201;SDS011;14717;46.924;15.474;2022-08-19T08:01:57;9.65;;;3.22;;
27201;SDS011;14717;46.924;15.474;2022-08-19T08:04:25;7.80;;;3.17;;
27201;SDS011;14717;46.924;15.474;2022-08-19T08:07:09;5.95;;;2.60;;
27201;SDS011;14717;46.924;15.474;2022-08-19T08:09:53;4.88;;;2.65;;
27201;SDS011;14717;46.924;15.474;2022-08-19T08:12:23;7.72;;;2.72;;
27201;SDS011;14717;46.924;15.474;2022-08-19T08:14:54;6.57;;;2.20;;
27201;SDS011;14717;46.924;15.474;2022-08-19T08:17:22;6.72;;;2.42;;
27201;SDS011;14717;46.924;15.474;2022-08-19T08:19:49;8.23;;;3.15;;
27201;SDS011;14717;46.924;15.474;2022-08-19T08:22:16;7.65;;;2.53;;
27201;SDS011;14717;46.924;15.474;2022-08-19T08:25:10;6.03;;;2.60;;
27201;SDS011;14717;46.924;15.474;2022-08-19T08:27:39;7.07;;;2.63;;
27201;SDS011;14717;46.924;15.474;2022-08-19T08:30:10;5.80;;;2.78;;
27201;SDS011;14717;46.924;15.474;2022-08-19T08:32:39;11.85;;;3.53;;
27201;SDS011;14717;46.924;15.474;2022-08-19T08:35:05;7.43;;;2.42;;
27201;SDS011;14717;46.924;15.474;2022-08-19T08:37:33;7.28;;;2.15;;
27201;SDS011;14717;46.924;15.474;2022-08-19T08:40:01;7.07;;;2.10;;
27201;SDS011;14717;46.924;15.474;2022-08-19T08:42:34;8.88;;;2.60;;
27201;SDS011;14717;46.924;15.474;2022-08-19T08:45:08;6.38;;;2.50;;
27201;SDS011;14717;46.924;15.474;2022-08-19T08:47:40;5.75;;;2.28;;
27201;SDS011;14717;46.924;15.474;2022-08-19T08:50:31;5.88;;;2.47;;
27201;SDS011;14717;46.924;15.474;2022-08-19T08:53:03;5.63;;;2.33;;
27201;SDS011;14717;46.924;15.474;2022-08-19T08:55:31;4.88;;;2.50;;
27201;SDS011;14717;46.924;15.474;2022-08-19T09:00:40;7.93;;;1.92;;
27201;SDS011;14717;46.924;15.474;2022-08-19T09:03:17;6.03;;;1.95;;
27201;SDS011;14717;46.924;15.474;2022-08-19T09:08:19;3.63;;;1.90;;
27201;SDS011;14717;46.924;15.474;2022-08-19T09:10:53;5.25;;;2.15;;
27201;SDS011;14717;46.924;15.474;2022-08-19T09:13:35;6.40;;;2.25;;
27201;SDS011;14717;46.924;15.474;2022-08-19T09:16:12;5.38;;;2.58;;
27201;SDS011;14717;46.924;15.474;2022-08-19T09:18:42;5.72;;;2.25;;
27201;SDS011;14717;46.924;15.474;2022-08-19T09:21:09;4.88;;;2.05;;
27201;SDS011;14717;46.924;15.474;2022-08-19T09:23:35;5.68;;;2.35;;
27201;SDS011;14717;46.924;15.474;2022-08-19T09:26:06;5.53;;;2.65;;
27201;SDS011;14717;46.924;15.474;2022-08-19T09:28:33;7.43;;;2.55;;
27201;SDS011;14717;46.924;15.474;2022-08-19T09:30:58;5.68;;;2.80;;
27201;SDS011;14717;46.924;15.474;2022-08-19T09:33:24;9.25;;;3.20;;
27201;SDS011;14717;46.924;15.474;2022-08-19T09:35:49;4.00;;;2.40;;
27201;SDS011;14717;46.924;15.474;2022-08-19T09:38:14;5.55;;;2.10;;
27201;SDS011;14717;46.924;15.474;2022-08-19T09:40:40;10.23;;;2.17;;
27201;SDS011;14717;46.924;15.474;2022-08-19T09:43:05;5.75;;;2.30;;
27201;SDS011;14717;46.924;15.474;2022-08-19T09:45:31;10.77;;;2.05;;
27201;SDS011;14717;46.924;15.474;2022-08-19T09:47:57;7.70;;;2.08;;
27201;SDS011;14717;46.924;15.474;2022-08-19T09:50:22;5.25;;;2.05;;
27201;SDS011;14717;46.924;15.474;2022-08-19T09:52:49;8.07;;;2.20;;
27201;SDS011;14717;46.924;15.474;2022-08-19T09:55:17;4.25;;;2.20;;
27201;SDS011;14717;46.924;15.474;2022-08-19T09:57:44;7.25;;;2.53;;
27201;SDS011;14717;46.924;15.474;2022-08-19T10:00:09;5.45;;;2.30;;
27201;SDS011;14717;46.924;15.474;2022-08-19T10:02:35;9.32;;;2.25;;
27201;SDS011;14717;46.924;15.474;2022-08-19T10:05:01;5.55;;;2.35;;
27201;SDS011;14717;46.924;15.474;2022-08-19T10:07:45;5.20;;;2.25;;
27201;SDS011;14717;46.924;15.474;2022-08-19T10:10:10;4.78;;;2.20;;
27201;SDS011;14717;46.924;15.474;2022-08-19T10:12:36;6.65;;;2.28;;
27201;SDS011;14717;46.924;15.474;2022-08-19T10:15:02;5.03;;;2.58;;
27201;SDS011;14717;46.924;15.474;2022-08-19T10:17:29;6.20;;;2.35;;
27201;SDS011;14717;46.924;15.474;2022-08-19T10:19:54;5.25;;;2.40;;
27201;SDS011;14717;46.924;15.474;2022-08-19T10:22:20;3.88;;;2.22;;
27201;SDS011;14717;46.924;15.474;2022-08-19T10:24:46;5.38;;;2.30;;
27201;SDS011;14717;46.924;15.474;2022-08-19T10:27:11;5.43;;;3.50;;
27201;SDS011;14717;46.924;15.474;2022-08-19T10:29:38;7.10;;;3.10;;
27201;SDS011;14717;46.924;15.474;2022-08-19T10:32:04;4.60;;;2.70;;
27201;SDS011;14717;46.924;15.474;2022-08-19T10:34:33;7.28;;;2.95;;
27201;SDS011;14717;46.924;15.474;2022-08-19T10:37:00;7.70;;;2.95;;
27201;SDS011;14717;46.924;15.474;2022-08-19T10:39:31;5.78;;;2.95;;
27201;SDS011;14717;46.924;15.474;2022-08-19T10:41:58;5.78;;;3.00;;
27201;SDS011;14717;46.924;15.474;2022-08-19T10:44:24;9.50;;;4.03;;
27201;SDS011;14717;46.924;15.474;2022-08-19T10:46:50;6.00;;;3.03;;
27201;SDS011;14717;46.924;15.474;2022-08-19T10:49:17;9.25;;;3.90;;
27201;SDS011;14717;46.924;15.474;2022-08-19T10:51:44;9.05;;;3.60;;
27201;SDS011;14717;46.924;15.474;2022-08-19T10:54:28;9.13;;;3.88;;
27201;SDS011;14717;46.924;15.474;2022-08-19T10:57:14;5.90;;;3.38;;
27201;SDS011;14717;46.924;15.474;2022-08-19T10:59:40;5.85;;;2.78;;
27201;SDS011;14717;46.924;15.474;2022-08-19T11:02:07;4.95;;;2.70;;
27201;SDS011;14717;46.924;15.474;2022-08-19T11:04:38;4.18;;;2.10;;
27201;SDS011;14717;46.924;15.474;2022-08-19T11:07:05;4.43;;;1.90;;
27201;SDS011;14717;46.924;15.474;2022-08-19T11:09:31;6.50;;;1.98;;
27201;SDS011;14717;46.924;15.474;2022-08-19T11:12:03;7.78;;;2.40;;
27201;SDS011;14717;46.924;15.474;2022-08-19T11:14:29;4.35;;;2.35;;
27201;SDS011;14717;46.924;15.474;2022-08-19T11:16:57;6.15;;;2.22;;
27201;SDS011;14717;46.924;15.474;2022-08-19T11:19:23;4.72;;;2.30;;
27201;SDS011;14717;46.924;15.474;2022-08-19T11:21:49;5.63;;;2.33;;
27201;SDS011;14717;46.924;15.474;2022-08-19T11:24:23;8.70;;;2.08;;
27201;SDS011;14717;46.924;15.474;2022-08-19T11:26:50;4.90;;;2.40;;
27201;SDS011;14717;46.924;15.474;2022-08-19T11:29:19;4.82;;;2.08;;
27201;SDS011;14717;46.924;15.474;2022-08-19T11:31:46;5.25;;;1.83;;
27201;SDS011;14717;46.924;15.474;2022-08-19T11:34:15;5.63;;;2.00;;
27201;SDS011;14717;46.924;15.474;2022-08-19T11:36:43;5.75;;;2.10;;
27201;SDS011;14717;46.924;15.474;2022-08-19T11:39:11;5.60;;;1.90;;
27201;SDS011;14717;46.924;15.474;2022-08-19T11:41:38;7.78;;;2.17;;
27201;SDS011;14717;46.924;15.474;2022-08-19T11:44:04;3.78;;;1.90;;
27201;SDS011;14717;46.924;15.474;2022-08-19T11:46:33;4.78;;;2.00;;
27201;SDS011;14717;46.924;15.474;2022-08-19T11:49:00;5.43;;;2.15;;
27201;SDS011;14717;46.924;15.474;2022-08-19T11:51:26;4.82;;;1.80;;
27201;SDS011;14717;46.924;15.474;2022-08-19T11:53:53;3.08;;;1.83;;
27201;SDS011;14717;46.924;15.474;2022-08-19T11:56:20;5.90;;;1.90;;
27201;SDS011;14717;46.924;15.474;2022-08-19T11:58:46;7.10;;;2.10;;
27201;SDS011;14717;46.924;15.474;2022-08-19T12:01:13;5.07;;;2.10;;
27201;SDS011;14717;46.924;15.474;2022-08-19T12:03:41;5.65;;;2.00;;
27201;SDS011;14717;46.924;15.474;2022-08-19T12:06:09;4.93;;;2.08;;
27201;SDS011;14717;46.924;15.474;2022-08-19T12:08:38;6.40;;;2.35;;
27201;SDS011;14717;46.924;15.474;2022-08-19T12:11:04;6.65;;;2.35;;
27201;SDS011;14717;46.924;15.474;2022-08-19T12:13:32;5.25;;;2.03;;
27201;SDS011;14717;46.924;15.474;2022-08-19T12:15:59;6.35;;;2.30;;
27201;SDS011;14717;46.924;15.474;2022-08-19T12:18:24;6.60;;;2.35;;
27201;SDS011;14717;46.924;15.474;2022-08-19T12:20:50;5.38;;;2.00;;
27201;SDS011;14717;46.924;15.474;2022-08-19T12:23:17;6.25;;;2.15;;
27201;SDS011;14717;46.924;15.474;2022-08-19T12:25:43;8.25;;;2.42;;
27201;SDS011;14717;46.924;15.474;2022-08-19T12:28:20;5.85;;;2.03;;
27201;SDS011;14717;46.924;15.474;2022-08-19T12:30:48;5.45;;;2.10;;
27201;SDS011;14717;46.924;15.474;2022-08-19T12:33:15;6.45;;;2.33;;
27201;SDS011;14717;46.924;15.474;2022-08-19T12:35:41;6.70;;;2.03;;
27201;SDS011;14717;46.924;15.474;2022-08-19T12:38:09;6.47;;;1.92;;
27201;SDS011;14717;46.924;15.474;2022-08-19T12:40:35;6.90;;;2.30;;
27201;SDS011;14717;46.924;15.474;2022-08-19T12:43:00;6.30;;;2.45;;
27201;SDS011;14717;46.924;15.474;2022-08-19T12:45:25;8.15;;;2.30;;
27201;SDS011;14717;46.924;15.474;2022-08-19T12:47:51;4.70;;;2.08;;
27201;SDS011;14717;46.924;15.474;2022-08-19T12:50:18;7.30;;;2.72;;
27201;SDS011;14717;46.924;15.474;2022-08-19T12:52:43;10.50;;;2.20;;
27201;SDS011;14717;46.924;15.474;2022-08-19T12:55:09;5.35;;;1.83;;
27201;SDS011;14717;46.924;15.474;2022-08-19T12:57:36;8.48;;;2.03;;
27201;SDS011;14717;46.924;15.474;2022-08-19T13:00:11;6.75;;;2.10;;
27201;SDS011;14717;46.924;15.474;2022-08-19T13:02:39;8.00;;;2.03;;
27201;SDS011;14717;46.924;15.474;2022-08-19T13:05:09;8.80;;;2.05;;
27201;SDS011;14717;46.924;15.474;2022-08-19T13:07:37;6.32;;;2.25;;
27201;SDS011;14717;46.924;15.474;2022-08-19T13:10:04;6.72;;;2.50;;
27201;SDS011;14717;46.924;15.474;2022-08-19T13:12:34;4.63;;;1.90;;
27201;SDS011;14717;46.924;15.474;2022-08-19T13:15:00;6.45;;;2.20;;
27201;SDS011;14717;46.924;15.474;2022-08-19T13:17:25;6.40;;;2.00;;
27201;SDS011;14717;46.924;15.474;2022-08-19T13:19:51;7.90;;;2.58;;
27201;SDS011;14717;46.924;15.474;2022-08-19T13:22:17;5.55;;;2.13;;
27201;SDS011;14717;46.924;15.474;2022-08-19T13:24:42;7.40;;;2.05;;
27201;SDS011;14717;46.924;15.474;2022-08-19T13:27:08;4.50;;;2.13;;
27201;SDS011;14717;46.924;15.474;2022-08-19T13:29:33;9.65;;;2.42;;
27201;SDS011;14717;46.924;15.474;2022-08-19T13:32:17;7.93;;;2.30;;
27201;SDS011;14717;46.924;15.474;2022-08-19T13:35:03;14.25;;;2.50;;
27201;SDS011;14717;46.924;15.474;2022-08-19T13:37:29;9.57;;;2.42;;
27201;SDS011;14717;46.924;15.474;2022-08-19T13:40:08;9.13;;;2.92;;
27201;SDS011;14717;46.924;15.474;2022-08-19T13:42:37;7.57;;;2.45;;
27201;SDS011;14717;46.924;15.474;2022-08-19T13:45:06;8.93;;;2.58;;
27201;SDS011;14717;46.924;15.474;2022-08-19T13:47:33;8.15;;;2.55;;
27201;SDS011;14717;46.924;15.474;2022-08-19T13:50:10;9.20;;;2.50;;
27201;SDS011;14717;46.924;15.474;2022-08-19T13:52:37;5.00;;;2.00;;
27201;SDS011;14717;46.924;15.474;2022-08-19T13:55:03;8.23;;;2.17;;
27201;SDS011;14717;46.924;15.474;2022-08-19T13:57:29;6.55;;;2.15;;
27201;SDS011;14717;46.924;15.474;2022-08-19T13:59:55;6.32;;;2.15;;
27201;SDS011;14717;46.924;15.474;2022-08-19T14:02:22;5.75;;;2.22;;
27201;SDS011;14717;46.924;15.474;2022-08-19T14:04:47;5.38;;;2.20;;
27201;SDS011;14717;46.924;15.474;2022-08-19T14:07:12;6.35;;;2.20;;
27201;SDS011;14717;46.924;15.474;2022-08-19T14:09:39;6.75;;;2.40;;
27201;SDS011;14717;46.924;15.474;2022-08-19T14:12:04;9.30;;;2.45;;
27201;SDS011;14717;46.924;15.474;2022-08-19T14:14:30;7.15;;;2.25;;
27201;SDS011;14717;46.924;15.474;2022-08-19T14:16:55;5.72;;;2.25;;
27201;SDS011;14717;46.924;15.474;2022-08-19T14:19:20;6.22;;;2.20;;
27201;SDS011;14717;46.924;15.474;2022-08-19T14:21:46;7.03;;;2.40;;
27201;SDS011;14717;46.924;15.474;2022-08-19T14:24:12;6.80;;;2.45;;
27201;SDS011;14717;46.924;15.474;2022-08-19T14:26:37;6.03;;;2.10;;
27201;SDS011;14717;46.924;15.474;2022-08-19T14:29:03;5.47;;;2.28;;
27201;SDS011;14717;46.924;15.474;2022-08-19T14:31:28;8.27;;;2.42;;
27201;SDS011;14717;46.924;15.474;2022-08-19T14:33:54;5.38;;;2.25;;
27201;SDS011;14717;46.924;15.474;2022-08-19T14:36:19;7.65;;;2.03;;
27201;SDS011;14717;46.924;15.474;2022-08-19T14:38:46;7.72;;;2.30;;
27201;SDS011;14717;46.924;15.474;2022-08-19T14:41:16;7.35;;;1.98;;
27201;SDS011;14717;46.924;15.474;2022-08-19T14:43:47;10.38;;;2.40;;
27201;SDS011;14717;46.924;15.474;2022-08-19T14:46:15;9.02;;;2.70;;
27201;SDS011;14717;46.924;15.474;2022-08-19T14:48:42;7.05;;;2.45;;
27201;SDS011;14717;46.924;15.474;2022-08-19T14:51:08;5.07;;;2.33;;